JST594 YMML-YSSY
Flight info
| Callsign | JST594 |
|---|---|
| Flight time | N/A |
| Altitude | 33000 |
| Route | DOSEL2/34 DOSEL Y59 RIVET |
| Aircraft | A320/M-VGDW/C |
Departure
| Time | N/A |
|---|---|
| Airport | Melbourne Airport (YMML) |
Arrival
| Time | 2026-05-01 07:59 |
|---|---|
| Airport | Sydney Kingsford Smith International Airport (YSSY) |
| Time | Latitude | Longitude | Altitude | Speed | Heading |
|---|---|---|---|---|---|
| 2026-05-01 07:23 | -35.43032 | 148.29922 | 33334 ft | 467 kts | 50° |
| 2026-05-01 07:24 | -35.37105 | 148.39421 | 33336 ft | 467 kts | 50° |
| 2026-05-01 07:24 | -35.33141 | 148.45758 | 33334 ft | 469 kts | 50° |
| 2026-05-01 07:25 | -35.29214 | 148.52029 | 33336 ft | 463 kts | 50° |
| 2026-05-01 07:25 | -35.25273 | 148.58309 | 33348 ft | 465 kts | 50° |
| 2026-05-01 07:26 | -35.21326 | 148.64584 | 33324 ft | 465 kts | 50° |
| 2026-05-01 07:26 | -35.17377 | 148.70853 | 33335 ft | 467 kts | 50° |
| 2026-05-01 07:27 | -35.13411 | 148.77141 | 33333 ft | 465 kts | 50° |
| 2026-05-01 07:27 | -35.09473 | 148.83374 | 33329 ft | 463 kts | 50° |
| 2026-05-01 07:28 | -35.05549 | 148.89572 | 33323 ft | 450 kts | 50° |
| 2026-05-01 07:28 | -35.03661 | 148.92553 | 33331 ft | 437 kts | 50° |
| 2026-05-01 07:28 | -35.01799 | 148.95487 | 33324 ft | 440 kts | 50° |
| 2026-05-01 07:28 | -34.99913 | 148.98453 | 33166 ft | 444 kts | 50° |
| 2026-05-01 07:29 | -34.98021 | 149.01428 | 32909 ft | 441 kts | 50° |
| 2026-05-01 07:29 | -34.96163 | 149.04349 | 32661 ft | 439 kts | 50° |
| 2026-05-01 07:29 | -34.94291 | 149.07288 | 32405 ft | 435 kts | 49° |
| 2026-05-01 07:29 | -34.92432 | 149.10203 | 32153 ft | 435 kts | 49° |
| 2026-05-01 07:30 | -34.90570 | 149.13120 | 31897 ft | 437 kts | 49° |
| 2026-05-01 07:30 | -34.88697 | 149.16054 | 31647 ft | 439 kts | 49° |
| 2026-05-01 07:30 | -34.86826 | 149.18983 | 31403 ft | 437 kts | 49° |
| 2026-05-01 07:30 | -34.84979 | 149.21872 | 31160 ft | 437 kts | 49° |
| 2026-05-01 07:31 | -34.83109 | 149.24794 | 30918 ft | 436 kts | 49° |
| 2026-05-01 07:31 | -34.77566 | 149.33442 | 30178 ft | 428 kts | 49° |
| 2026-05-01 07:32 | -34.73977 | 149.39222 | 29624 ft | 427 kts | 55° |
| 2026-05-01 07:32 | -34.72510 | 149.42372 | 29354 ft | 428 kts | 59° |
| 2026-05-01 07:33 | -34.69769 | 149.48710 | 28822 ft | 425 kts | 59° |
| 2026-05-01 07:33 | -34.68389 | 149.51879 | 28562 ft | 423 kts | 59° |
| 2026-05-01 07:33 | -34.65642 | 149.58172 | 28040 ft | 420 kts | 59° |
| 2026-05-01 07:34 | -34.64271 | 149.61303 | 27777 ft | 419 kts | 59° |
| 2026-05-01 07:34 | -34.61536 | 149.67545 | 27077 ft | 418 kts | 59° |
| 2026-05-01 07:34 | -34.60170 | 149.70658 | 26512 ft | 416 kts | 59° |
| 2026-05-01 07:35 | -34.58812 | 149.73751 | 25955 ft | 413 kts | 59° |
| 2026-05-01 07:35 | -34.57468 | 149.76809 | 25412 ft | 409 kts | 59° |
| 2026-05-01 07:35 | -34.56130 | 149.79851 | 24876 ft | 406 kts | 59° |
| 2026-05-01 07:35 | -34.54823 | 149.82821 | 24358 ft | 403 kts | 59° |
| 2026-05-01 07:36 | -34.53508 | 149.85805 | 23825 ft | 400 kts | 59° |
| 2026-05-01 07:36 | -34.52198 | 149.88776 | 23205 ft | 397 kts | 60° |
| 2026-05-01 07:36 | -34.50899 | 149.91717 | 22606 ft | 394 kts | 60° |
| 2026-05-01 07:36 | -34.49606 | 149.94640 | 22020 ft | 391 kts | 60° |
| 2026-05-01 07:37 | -34.47054 | 150.00406 | 20874 ft | 385 kts | 60° |
| 2026-05-01 07:37 | -34.45802 | 150.03233 | 20326 ft | 382 kts | 60° |
| 2026-05-01 07:37 | -34.44547 | 150.06063 | 19779 ft | 379 kts | 60° |
| 2026-05-01 07:38 | -34.43301 | 150.08873 | 19240 ft | 377 kts | 60° |
| 2026-05-01 07:38 | -34.42064 | 150.11656 | 18718 ft | 374 kts | 60° |
| 2026-05-01 07:38 | -34.39641 | 150.17108 | 17751 ft | 363 kts | 60° |
| 2026-05-01 07:39 | -34.38455 | 150.19777 | 17311 ft | 357 kts | 60° |
| 2026-05-01 07:39 | -34.37282 | 150.22413 | 16883 ft | 352 kts | 60° |
| 2026-05-01 07:39 | -34.34965 | 150.27612 | 16038 ft | 349 kts | 60° |
| 2026-05-01 07:40 | -34.33828 | 150.30157 | 15602 ft | 346 kts | 60° |
| 2026-05-01 07:40 | -34.32688 | 150.32709 | 15172 ft | 342 kts | 60° |
| 2026-05-01 07:40 | -34.31561 | 150.35231 | 14748 ft | 339 kts | 60° |
| 2026-05-01 07:40 | -34.30439 | 150.37734 | 14331 ft | 337 kts | 60° |
| 2026-05-01 07:41 | -34.29321 | 150.40228 | 13879 ft | 336 kts | 60° |
| 2026-05-01 07:41 | -34.28212 | 150.42703 | 13415 ft | 333 kts | 60° |
| 2026-05-01 07:41 | -34.26029 | 150.47586 | 12634 ft | 329 kts | 60° |
| 2026-05-01 07:42 | -34.24939 | 150.50029 | 12312 ft | 329 kts | 60° |
| 2026-05-01 07:42 | -34.23853 | 150.52460 | 11897 ft | 328 kts | 60° |
| 2026-05-01 07:42 | -34.22772 | 150.54876 | 11437 ft | 326 kts | 60° |
| 2026-05-01 07:42 | -34.21714 | 150.57239 | 10990 ft | 323 kts | 60° |
| 2026-05-01 07:43 | -34.20651 | 150.59614 | 10543 ft | 320 kts | 60° |
| 2026-05-01 07:43 | -34.19593 | 150.61973 | 10088 ft | 319 kts | 60° |
| 2026-05-01 07:43 | -34.17493 | 150.66646 | 9174 ft | 311 kts | 60° |
| 2026-05-01 07:44 | -34.15443 | 150.71205 | 8667 ft | 312 kts | 60° |
| 2026-05-01 07:44 | -34.13390 | 150.75762 | 8155 ft | 307 kts | 60° |
| 2026-05-01 07:45 | -34.12379 | 150.78003 | 7927 ft | 302 kts | 60° |
| 2026-05-01 07:45 | -34.11389 | 150.80199 | 7678 ft | 302 kts | 60° |
| 2026-05-01 07:45 | -34.10381 | 150.82429 | 7425 ft | 301 kts | 60° |
| 2026-05-01 07:45 | -34.09385 | 150.84635 | 7186 ft | 299 kts | 60° |
| 2026-05-01 07:46 | -34.08391 | 150.86843 | 6945 ft | 297 kts | 60° |
| 2026-05-01 07:46 | -34.07410 | 150.89021 | 6703 ft | 293 kts | 60° |
| 2026-05-01 07:46 | -34.05829 | 150.92534 | 6277 ft | 279 kts | 60° |
| 2026-05-01 07:47 | -34.04918 | 150.94558 | 6048 ft | 270 kts | 60° |
| 2026-05-01 07:47 | -34.03768 | 150.97112 | 6001 ft | 253 kts | 60° |
| 2026-05-01 07:47 | -34.03110 | 150.99052 | 6004 ft | 251 kts | 79° |
| 2026-05-01 07:47 | -34.03239 | 151.01158 | 5999 ft | 257 kts | 108° |
| 2026-05-01 07:48 | -34.04988 | 151.03969 | 5998 ft | 244 kts | 132° |
| 2026-05-01 07:48 | -34.06129 | 151.05376 | 5992 ft | 225 kts | 131° |
| 2026-05-01 07:48 | -34.07178 | 151.06674 | 5981 ft | 208 kts | 131° |
| 2026-05-01 07:49 | -34.08295 | 151.07699 | 5900 ft | 197 kts | 152° |
| 2026-05-01 07:49 | -34.11126 | 151.08548 | 5179 ft | 215 kts | 166° |
| 2026-05-01 07:49 | -34.12611 | 151.08925 | 4598 ft | 220 kts | 166° |
| 2026-05-01 07:50 | -34.14095 | 151.09303 | 4241 ft | 213 kts | 166° |
| 2026-05-01 07:50 | -34.16879 | 151.10017 | 3741 ft | 198 kts | 165° |
| 2026-05-01 07:50 | -34.18249 | 151.10374 | 3499 ft | 201 kts | 165° |
| 2026-05-01 07:51 | -34.19485 | 151.11055 | 3236 ft | 193 kts | 132° |
| 2026-05-01 07:51 | -34.20087 | 151.12424 | 3033 ft | 182 kts | 92° |
| 2026-05-01 07:51 | -34.20057 | 151.13921 | 3008 ft | 181 kts | 83° |
| 2026-05-01 07:52 | -34.19898 | 151.16736 | 3009 ft | 167 kts | 83° |
| 2026-05-01 07:52 | -34.19816 | 151.18136 | 3007 ft | 168 kts | 83° |
| 2026-05-01 07:52 | -34.19733 | 151.19530 | 3005 ft | 167 kts | 83° |
| 2026-05-01 07:53 | -34.19328 | 151.22239 | 3008 ft | 163 kts | 52° |
| 2026-05-01 07:53 | -34.18382 | 151.22986 | 3014 ft | 165 kts | 24° |
| 2026-05-01 07:53 | -34.17321 | 151.23483 | 3005 ft | 165 kts | 23° |
| 2026-05-01 07:53 | -34.16200 | 151.23751 | 3011 ft | 170 kts | 359° |
| 2026-05-01 07:54 | -34.13955 | 151.23022 | 3004 ft | 155 kts | 345° |
| 2026-05-01 07:55 | -34.10963 | 151.21857 | 2999 ft | 148 kts | 348° |
| 2026-05-01 07:55 | -34.08929 | 151.21304 | 2754 ft | 148 kts | 352° |
| 2026-05-01 07:56 | -34.05925 | 151.20528 | 1927 ft | 145 kts | 352° |
| 2026-05-01 07:56 | -34.03930 | 151.20010 | 1378 ft | 148 kts | 352° |
| 2026-05-01 07:57 | -34.02926 | 151.19751 | 1115 ft | 148 kts | 352° |
| 2026-05-01 07:57 | -34.00940 | 151.19243 | 720 ft | 145 kts | 351° |
| 2026-05-01 07:58 | -33.98952 | 151.18724 | 505 ft | 150 kts | 351° |
| 2026-05-01 07:58 | -33.96981 | 151.18208 | 119 ft | 134 kts | 350° |
| 2026-05-01 07:59 | -33.95473 | 151.17821 | 22 ft | 67 kts | 348° |
| 2026-05-01 07:59 | -33.95145 | 151.17869 | 23 ft | 0 kts | 76° |
| 2026-05-01 08:01 | -33.95061 | 151.17959 | 28 ft | 5 kts | 306° |
| 2026-05-01 08:01 | -33.95000 | 151.17916 | 26 ft | 17 kts | 339° |
| 2026-05-01 08:01 | -33.94857 | 151.17883 | 21 ft | 16 kts | 349° |
| 2026-05-01 08:02 | -33.94635 | 151.17822 | 21 ft | 17 kts | 348° |
| 2026-05-01 08:02 | -33.94522 | 151.17794 | 22 ft | 19 kts | 348° |
| 2026-05-01 08:03 | -33.94251 | 151.17712 | 21 ft | 21 kts | 343° |
| 2026-05-01 08:03 | -33.94108 | 151.17665 | 22 ft | 19 kts | 346° |
| 2026-05-01 08:03 | -33.93881 | 151.17627 | 18 ft | 11 kts | 36° |
| 2026-05-01 08:04 | -33.93802 | 151.17778 | 21 ft | 12 kts | 10° |
| 2026-05-01 08:04 | -33.93719 | 151.17796 | 30 ft | 2 kts | 10° |
| 2026-05-01 08:05 | -33.93593 | 151.17824 | 30 ft | 11 kts | 11° |
| 2026-05-01 08:05 | -33.93529 | 151.17841 | 30 ft | 9 kts | 25° |
| 2026-05-01 08:05 | -33.93520 | 151.17899 | 30 ft | 0 kts | 100° |